createdAt,value
2022-11-15T00:00:48.971Z,9.44
2022-11-15T00:01:49.002Z,9.42
2022-11-15T00:02:48.937Z,9.41
2022-11-15T00:03:48.919Z,9.38
2022-11-15T00:04:48.909Z,9.22
2022-11-15T00:05:48.893Z,9.27
2022-11-15T00:06:48.905Z,9.35
2022-11-15T00:07:55.679Z,9.37
2022-11-15T00:08:48.853Z,9.23
2022-11-15T00:09:48.837Z,9.27
2022-11-15T00:10:48.825Z,9.19
2022-11-15T00:11:48.808Z,9.23
2022-11-15T00:12:48.803Z,9.23
2022-11-15T00:13:48.780Z,9.32
2022-11-15T00:14:48.772Z,9.30
2022-11-15T00:15:48.791Z,9.31
2022-11-15T00:16:48.741Z,9.30
2022-11-15T00:17:48.726Z,9.41
2022-11-15T00:18:50.857Z,9.38
2022-11-15T00:19:48.697Z,9.40
2022-11-15T00:20:48.687Z,9.26
2022-11-15T00:21:48.670Z,9.24
2022-11-15T00:22:48.659Z,9.26
2022-11-15T00:23:48.640Z,9.31
2022-11-15T00:24:48.628Z,9.24
2022-11-15T00:25:48.613Z,9.30
2022-11-15T00:26:48.602Z,9.37
2022-11-15T00:27:48.586Z,9.31
2022-11-15T00:28:48.573Z,9.32
2022-11-15T00:29:48.558Z,9.22
2022-11-15T00:30:48.545Z,9.30
2022-11-15T00:31:48.548Z,9.37
2022-11-15T00:32:48.516Z,9.32
2022-11-15T00:33:48.501Z,9.34
2022-11-15T00:34:48.491Z,9.27
2022-11-15T00:35:48.474Z,9.31
2022-11-15T00:36:48.461Z,9.32
2022-11-15T00:37:48.454Z,9.24
2022-11-15T00:38:48.435Z,9.22
2022-11-15T00:39:48.432Z,9.26
2022-11-15T00:40:48.408Z,9.24
2022-11-15T00:41:48.390Z,9.22
2022-11-15T00:42:48.379Z,9.24
2022-11-15T00:43:48.361Z,9.26
2022-11-15T00:44:48.350Z,9.27
2022-11-15T00:45:48.335Z,9.31
2022-11-15T00:46:48.322Z,9.24
2022-11-15T00:47:48.324Z,9.34
2022-11-15T00:48:48.294Z,9.30
2022-11-15T00:49:48.277Z,9.24
2022-11-15T00:50:48.269Z,9.24
2022-11-15T00:51:48.304Z,9.26
2022-11-15T00:52:48.237Z,9.31
2022-11-15T00:53:48.221Z,9.27
2022-11-15T00:54:48.213Z,9.35
2022-11-15T00:55:48.193Z,9.20
2022-11-15T00:56:48.181Z,9.23
2022-11-15T00:57:48.166Z,9.24
2022-11-15T00:58:48.154Z,9.30
2022-11-15T00:59:48.137Z,9.26
2022-11-15T01:00:48.159Z,9.15
2022-11-15T01:01:48.109Z,9.26
2022-11-15T01:02:48.098Z,9.20
2022-11-15T01:03:48.101Z,9.22
2022-11-15T01:04:48.070Z,9.16
2022-11-15T01:05:48.053Z,9.23
2022-11-15T01:06:48.124Z,9.26
2022-11-15T01:07:48.024Z,9.16
2022-11-15T01:08:48.014Z,9.17
2022-11-15T01:09:47.997Z,9.24
2022-11-15T01:10:47.988Z,9.23
2022-11-15T01:11:47.981Z,9.24
2022-11-15T01:12:47.958Z,9.26
2022-11-15T01:13:47.944Z,9.31
2022-11-15T01:14:47.930Z,9.31
2022-11-15T01:15:47.912Z,9.30
2022-11-15T01:16:47.900Z,9.27
2022-11-15T01:17:47.890Z,9.30
2022-11-15T01:18:47.874Z,9.24
2022-11-15T01:19:47.874Z,9.19
2022-11-15T01:20:47.845Z,9.20
2022-11-15T01:21:47.831Z,9.26
2022-11-15T01:22:47.819Z,9.27
2022-11-15T01:23:47.801Z,9.34
2022-11-15T01:24:47.789Z,9.24
2022-11-15T01:25:47.772Z,9.24
2022-11-15T01:26:47.762Z,9.24
2022-11-15T01:27:47.757Z,9.26
2022-11-15T01:28:47.733Z,9.30
2022-11-15T01:29:47.716Z,9.27
2022-11-15T01:30:47.705Z,9.32
2022-11-15T01:31:47.688Z,9.27
2022-11-15T01:32:47.679Z,9.24
2022-11-15T01:33:47.660Z,9.40
2022-11-15T01:34:47.648Z,9.45
2022-11-15T01:35:47.651Z,9.45
2022-11-15T01:36:47.621Z,9.49
2022-11-15T01:37:47.606Z,9.42
2022-11-15T01:38:47.593Z,9.35
2022-11-15T01:39:47.576Z,9.37
2022-11-15T01:40:47.566Z,9.38
2022-11-15T01:41:47.549Z,9.38
2022-11-15T01:42:47.536Z,9.44
2022-11-15T01:43:47.520Z,9.55
2022-11-15T01:44:47.512Z,9.74
2022-11-15T01:45:47.492Z,9.67
2022-11-15T01:46:47.480Z,9.65
2022-11-15T01:47:47.464Z,9.60
2022-11-15T01:48:47.453Z,9.67
2022-11-15T01:49:47.435Z,9.63
2022-11-15T01:50:47.438Z,9.58
2022-11-15T01:51:47.433Z,9.60
2022-11-15T01:52:47.397Z,9.58
2022-11-15T01:53:47.381Z,9.56
2022-11-15T01:54:47.468Z,9.56
2022-11-15T01:55:47.352Z,9.59
2022-11-15T01:56:47.341Z,9.67
2022-11-15T01:57:47.327Z,9.71
2022-11-15T01:58:47.312Z,9.80
2022-11-15T01:59:47.396Z,9.77
2022-11-15T02:00:47.312Z,9.81
2022-11-15T02:01:47.269Z,9.77
2022-11-15T02:02:47.257Z,9.74
2022-11-15T02:03:47.239Z,9.81
2022-11-15T02:04:47.234Z,9.85
2022-11-15T02:05:47.212Z,9.86
2022-11-15T02:06:47.245Z,9.92
2022-11-15T02:07:47.205Z,9.89
2022-11-15T02:08:47.173Z,9.89
2022-11-15T02:09:47.156Z,9.89
2022-11-15T02:10:47.145Z,9.78
2022-11-15T02:11:47.129Z,9.83
2022-11-15T02:12:47.318Z,9.80
2022-11-15T02:13:47.100Z,9.81
2022-11-15T02:14:47.090Z,9.67
2022-11-15T02:15:47.072Z,9.65
2022-11-15T02:16:47.061Z,9.68
2022-11-15T02:17:47.048Z,9.58
2022-11-15T02:18:47.033Z,9.65
2022-11-15T02:19:47.016Z,9.59
2022-11-15T02:20:47.001Z,9.52
2022-11-15T02:21:46.991Z,9.48
2022-11-15T02:22:46.980Z,9.50
2022-11-15T02:23:46.982Z,9.45
2022-11-15T02:24:46.951Z,9.50
2022-11-15T02:25:46.935Z,9.49
2022-11-15T02:26:46.923Z,9.56
2022-11-15T02:27:46.916Z,9.56
2022-11-15T02:28:46.892Z,9.45
2022-11-15T02:29:46.882Z,9.45
2022-11-15T02:30:46.865Z,9.48
2022-11-15T02:31:46.852Z,9.48
2022-11-15T02:32:46.835Z,9.49
2022-11-15T02:33:46.826Z,9.41
2022-11-15T02:34:46.808Z,9.44
2022-11-15T02:35:46.798Z,9.45
2022-11-15T02:36:46.783Z,9.38
2022-11-15T02:37:46.768Z,9.44
2022-11-15T02:38:46.760Z,9.42
2022-11-15T02:39:46.759Z,9.40
2022-11-15T02:40:46.724Z,9.41
2022-11-15T02:41:46.714Z,9.41
2022-11-15T02:42:46.699Z,9.40
2022-11-15T02:43:46.685Z,9.40
2022-11-15T02:44:46.669Z,9.40
2022-11-15T02:45:46.659Z,9.41
2022-11-15T02:46:46.641Z,9.37
2022-11-15T02:47:46.644Z,9.42
2022-11-15T02:48:46.612Z,9.38
2022-11-15T02:49:46.601Z,9.37
2022-11-15T02:50:46.587Z,9.37
2022-11-15T02:51:46.576Z,9.35
2022-11-15T02:52:46.559Z,9.40
2022-11-15T02:53:46.546Z,9.40
2022-11-15T02:54:46.530Z,9.38
2022-11-15T02:55:46.608Z,9.41
2022-11-15T02:56:46.502Z,9.27
2022-11-15T02:57:46.494Z,9.44
2022-11-15T02:58:46.478Z,9.41
2022-11-15T02:59:46.463Z,9.48
2022-11-15T03:00:46.473Z,9.40
2022-11-15T03:01:46.440Z,9.37
2022-11-15T03:02:46.420Z,9.35
2022-11-15T03:03:46.406Z,9.38
2022-11-15T03:04:46.392Z,9.37
2022-11-15T03:05:46.380Z,9.41
2022-11-15T03:06:46.365Z,9.40
2022-11-15T03:07:46.452Z,9.32
2022-11-15T03:08:46.336Z,9.42
2022-11-15T03:09:46.326Z,9.38
2022-11-15T03:10:46.308Z,9.40
2022-11-15T03:11:46.316Z,9.40
2022-11-15T03:12:46.280Z,9.41
2022-11-15T03:13:46.269Z,9.37
2022-11-15T03:14:46.256Z,9.35
2022-11-15T03:15:46.241Z,9.44
2022-11-15T03:16:46.226Z,9.35
2022-11-15T03:17:46.214Z,9.37
2022-11-15T03:18:46.197Z,9.37
2022-11-15T03:19:46.187Z,9.37
2022-11-15T03:20:46.168Z,9.32
2022-11-15T03:21:46.158Z,9.37
2022-11-15T03:22:46.144Z,9.38
2022-11-15T03:23:46.128Z,9.34
2022-11-15T03:24:46.114Z,9.34
2022-11-15T03:25:46.101Z,9.38
2022-11-15T03:26:46.087Z,9.34
2022-11-15T03:27:46.174Z,9.41
2022-11-15T03:28:46.058Z,9.40
2022-11-15T03:29:46.147Z,9.35
2022-11-15T03:30:46.032Z,9.38
2022-11-15T03:31:50.065Z,9.30
2022-11-15T03:32:46.003Z,9.38
2022-11-15T03:33:45.991Z,9.40
2022-11-15T03:34:45.975Z,9.40
2022-11-15T03:35:45.961Z,9.41
2022-11-15T03:36:45.947Z,9.55
2022-11-15T03:37:46.047Z,9.53
2022-11-15T03:38:45.921Z,9.60
2022-11-15T03:39:45.908Z,9.52
2022-11-15T03:40:45.890Z,9.49
2022-11-15T03:41:45.880Z,9.41
2022-11-15T03:42:45.874Z,9.48
2022-11-15T03:43:45.872Z,9.48
2022-11-15T03:44:45.840Z,9.45
2022-11-15T03:45:45.825Z,9.49
2022-11-15T03:46:45.820Z,9.44
2022-11-15T03:47:45.798Z,9.48
2022-11-15T03:48:45.782Z,9.55
2022-11-15T03:49:45.771Z,9.56
2022-11-15T03:50:45.758Z,9.58
2022-11-15T03:51:45.756Z,9.68
2022-11-15T03:52:45.725Z,9.75
2022-11-15T03:53:45.714Z,9.70
2022-11-15T03:54:45.699Z,9.74
2022-11-15T03:55:45.687Z,9.67
2022-11-15T03:56:45.671Z,9.73
2022-11-15T03:57:45.658Z,9.60
2022-11-15T03:58:45.644Z,9.77
2022-11-15T03:59:45.648Z,9.78
2022-11-15T04:00:45.693Z,9.91
2022-11-15T04:01:45.604Z,9.96
2022-11-15T04:02:45.588Z,9.91
2022-11-15T04:03:45.576Z,10.01
2022-11-15T04:04:45.564Z,9.95
2022-11-15T04:05:45.550Z,9.95
2022-11-15T04:06:45.581Z,9.88
2022-11-15T04:07:45.520Z,9.86
2022-11-15T04:08:45.503Z,9.75
2022-11-15T04:09:45.494Z,9.73
2022-11-15T04:10:45.479Z,9.78
2022-11-15T04:11:45.464Z,9.62
2022-11-15T04:12:45.448Z,9.60
2022-11-15T04:13:45.437Z,9.58
2022-11-15T04:14:45.421Z,9.55
2022-11-15T04:15:45.428Z,9.56
2022-11-15T04:16:45.393Z,9.52
2022-11-15T04:17:45.384Z,9.52
2022-11-15T04:18:45.366Z,9.45
2022-11-15T04:19:45.353Z,9.48
2022-11-15T04:20:45.337Z,9.40
2022-11-15T04:21:45.325Z,9.41
2022-11-15T04:22:45.313Z,9.37
2022-11-15T04:23:45.300Z,9.37
2022-11-15T04:24:45.281Z,9.30
2022-11-15T04:25:45.272Z,9.32
2022-11-15T04:26:45.254Z,9.34
2022-11-15T04:27:45.241Z,9.35
2022-11-15T04:28:45.226Z,9.26
2022-11-15T04:29:45.215Z,9.32
2022-11-15T04:30:45.197Z,9.38
2022-11-15T04:31:45.205Z,9.37
2022-11-15T04:32:45.169Z,9.48
2022-11-15T04:33:45.162Z,9.37
2022-11-15T04:34:45.140Z,9.40
2022-11-15T04:35:45.129Z,9.38
2022-11-15T04:36:45.114Z,9.40
2022-11-15T04:37:49.159Z,9.27
2022-11-15T04:38:45.085Z,9.32
2022-11-15T04:39:45.072Z,9.38
2022-11-15T04:40:45.056Z,9.34
2022-11-15T04:41:45.045Z,9.37
2022-11-15T04:42:45.029Z,9.32
2022-11-15T04:43:45.015Z,9.38
2022-11-15T04:44:45.000Z,9.37
2022-11-15T04:45:44.989Z,9.38
2022-11-15T04:46:44.974Z,9.37
2022-11-15T04:47:44.979Z,9.55
2022-11-15T04:48:44.945Z,9.37
2022-11-15T04:49:44.935Z,9.41
2022-11-15T04:50:44.917Z,9.41
2022-11-15T04:51:45.117Z,9.49
2022-11-15T04:52:44.887Z,9.55
2022-11-15T04:53:44.877Z,9.55
2022-11-15T04:54:44.861Z,9.53
2022-11-15T04:55:44.849Z,9.56
2022-11-15T04:56:44.831Z,9.55
2022-11-15T04:57:44.821Z,9.65
2022-11-15T04:58:44.807Z,9.63
2022-11-15T04:59:44.792Z,9.56
2022-11-15T05:00:44.839Z,9.53
2022-11-15T05:01:45.281Z,9.59
2022-11-15T05:02:44.750Z,9.53
2022-11-15T05:03:44.882Z,9.49
2022-11-15T05:04:44.722Z,9.56
2022-11-15T05:05:44.708Z,9.60
2022-11-15T05:06:44.862Z,9.67
2022-11-15T05:07:44.680Z,9.55
2022-11-15T05:08:44.672Z,9.63
2022-11-15T05:09:44.653Z,9.59
2022-11-15T05:10:44.637Z,9.58
2022-11-15T05:11:44.624Z,9.50
2022-11-15T05:12:44.606Z,9.41
2022-11-15T05:13:44.598Z,9.50
2022-11-15T05:14:44.580Z,9.50
2022-11-15T05:15:44.567Z,9.52
2022-11-15T05:16:44.553Z,9.56
2022-11-15T05:17:44.540Z,9.49
2022-11-15T05:18:44.524Z,9.59
2022-11-15T05:19:44.528Z,9.52
2022-11-15T05:20:44.495Z,9.50
2022-11-15T05:21:44.485Z,9.50
2022-11-15T05:22:44.468Z,9.38
2022-11-15T05:23:44.455Z,9.31
2022-11-15T05:24:44.440Z,9.38
2022-11-15T05:25:44.430Z,9.44
2022-11-15T05:26:44.411Z,9.41
2022-11-15T05:27:44.398Z,9.31
2022-11-15T05:28:44.383Z,9.32
2022-11-15T05:29:44.371Z,9.37
2022-11-15T05:30:44.355Z,9.27
2022-11-15T05:31:44.345Z,9.30
2022-11-15T05:32:44.328Z,9.22
2022-11-15T05:33:44.319Z,9.27
2022-11-15T05:34:44.301Z,9.24
2022-11-15T05:35:44.305Z,9.34
2022-11-15T05:36:44.283Z,9.31
2022-11-15T05:37:44.258Z,9.26
2022-11-15T05:38:44.243Z,9.24
2022-11-15T05:39:44.231Z,9.24
2022-11-15T05:40:44.215Z,9.41
2022-11-15T05:41:44.206Z,9.24
2022-11-15T05:42:44.188Z,9.27
2022-11-15T05:43:44.187Z,9.30
2022-11-15T05:44:44.162Z,9.23
2022-11-15T05:45:44.149Z,9.26
2022-11-15T05:46:44.133Z,9.23
2022-11-15T05:47:44.120Z,9.24
2022-11-15T05:48:44.103Z,9.27
2022-11-15T05:49:44.090Z,9.30
2022-11-15T05:50:44.072Z,9.23
2022-11-15T05:51:44.208Z,9.16
2022-11-15T05:52:44.046Z,9.16
2022-11-15T05:53:44.034Z,9.22
2022-11-15T05:54:44.018Z,9.16
2022-11-15T05:55:44.005Z,9.13
2022-11-15T05:56:43.990Z,9.16
2022-11-15T05:57:43.978Z,9.13
2022-11-15T05:58:43.961Z,9.08
2022-11-15T05:59:43.949Z,9.13
2022-11-15T06:00:43.932Z,9.01
2022-11-15T06:01:44.020Z,9.16
2022-11-15T06:02:43.905Z,9.12
2022-11-15T06:03:43.894Z,9.01
2022-11-15T06:04:43.879Z,9.06
2022-11-15T06:05:43.865Z,9.03
2022-11-15T06:06:43.849Z,9.08
2022-11-15T06:07:43.853Z,9.03
2022-11-15T06:08:43.821Z,9.12
2022-11-15T06:09:43.815Z,9.00
2022-11-15T06:10:43.809Z,9.12
2022-11-15T06:11:43.780Z,9.00
2022-11-15T06:12:43.868Z,9.00
2022-11-15T06:13:43.753Z,8.98
2022-11-15T06:14:43.736Z,8.96
2022-11-15T06:15:43.724Z,8.96
2022-11-15T06:16:43.708Z,8.97
2022-11-15T06:17:43.696Z,8.98
2022-11-15T06:18:43.681Z,9.03
2022-11-15T06:19:43.667Z,9.00
2022-11-15T06:20:43.650Z,8.93
2022-11-15T06:21:43.639Z,8.86
2022-11-15T06:22:43.623Z,8.93
2022-11-15T06:23:43.628Z,8.94
2022-11-15T06:24:43.593Z,8.96
2022-11-15T06:25:43.583Z,8.96
2022-11-15T06:26:43.566Z,8.98
2022-11-15T06:27:43.553Z,8.94
2022-11-15T06:28:43.539Z,8.86
2022-11-15T06:29:43.529Z,8.96
2022-11-15T06:30:43.510Z,8.86
2022-11-15T06:31:43.497Z,8.93
2022-11-15T06:32:43.480Z,8.94
2022-11-15T06:33:43.473Z,8.86
2022-11-15T06:34:43.454Z,8.88
2022-11-15T06:35:43.454Z,8.94
2022-11-15T06:36:43.426Z,8.91
2022-11-15T06:37:43.411Z,8.86
2022-11-15T06:38:43.400Z,8.85
2022-11-15T06:39:43.404Z,8.86
2022-11-15T06:40:43.370Z,8.89
2022-11-15T06:41:43.355Z,8.83
2022-11-15T06:42:43.342Z,8.86
2022-11-15T06:43:43.326Z,8.93
2022-11-15T06:44:43.313Z,8.86
2022-11-15T06:45:43.298Z,8.86
2022-11-15T06:46:43.287Z,8.94
2022-11-15T06:47:43.268Z,9.00
2022-11-15T06:48:43.259Z,9.03
2022-11-15T06:49:43.243Z,9.03
2022-11-15T06:50:43.228Z,8.96
2022-11-15T06:51:43.212Z,9.00
2022-11-15T06:52:43.200Z,9.13
2022-11-15T06:53:43.198Z,9.10
2022-11-15T06:54:43.271Z,9.17
2022-11-15T06:55:43.173Z,9.17
2022-11-15T06:56:43.159Z,9.08
2022-11-15T06:57:43.128Z,9.08
2022-11-15T06:58:43.115Z,9.06
2022-11-15T06:59:43.104Z,9.13
2022-11-15T07:00:43.086Z,9.10
2022-11-15T07:01:43.106Z,9.12
2022-11-15T07:02:43.059Z,9.16
2022-11-15T07:03:43.043Z,9.08
2022-11-15T07:04:43.030Z,9.19
2022-11-15T07:05:43.018Z,9.12
2022-11-15T07:06:43.002Z,9.13
2022-11-15T07:07:43.085Z,9.16
2022-11-15T07:08:42.973Z,9.17
2022-11-15T07:09:42.957Z,9.01
2022-11-15T07:10:42.956Z,9.01
2022-11-15T07:11:42.960Z,9.15
2022-11-15T07:12:42.918Z,9.10
2022-11-15T07:13:42.902Z,9.15
2022-11-15T07:14:42.889Z,9.20
2022-11-15T07:15:42.872Z,9.23
2022-11-15T07:16:42.864Z,9.15
2022-11-15T07:17:42.844Z,9.27
2022-11-15T07:18:42.835Z,9.24
2022-11-15T07:19:42.815Z,9.27
2022-11-15T07:20:42.803Z,9.26
2022-11-15T07:21:42.791Z,9.24
2022-11-15T07:22:42.777Z,9.32
2022-11-15T07:23:42.759Z,9.20
2022-11-15T07:24:42.751Z,9.27
2022-11-15T07:25:42.732Z,9.30
2022-11-15T07:26:42.720Z,9.24
2022-11-15T07:27:42.776Z,9.26
2022-11-15T07:28:42.690Z,9.27
2022-11-15T07:29:42.676Z,9.30
2022-11-15T07:30:45.398Z,9.24
2022-11-15T07:31:42.647Z,9.24
2022-11-15T07:32:42.635Z,9.30
2022-11-15T07:33:42.621Z,9.26
2022-11-15T07:34:42.608Z,9.30
2022-11-15T07:35:42.592Z,9.22
2022-11-15T07:36:42.579Z,9.20
2022-11-15T07:37:42.568Z,9.23
2022-11-15T07:38:43.214Z,9.31
2022-11-15T07:39:42.534Z,9.19
2022-11-15T07:40:42.520Z,9.27
2022-11-15T07:41:42.509Z,9.27
2022-11-15T07:42:42.496Z,9.30
2022-11-15T07:43:42.544Z,9.34
2022-11-15T07:44:42.466Z,9.32
2022-11-15T07:45:42.452Z,9.31
2022-11-15T07:46:42.489Z,9.37
2022-11-15T07:47:42.422Z,9.32
2022-11-15T07:48:45.065Z,9.41
2022-11-15T07:49:42.395Z,9.45
2022-11-15T07:50:42.385Z,9.44
2022-11-15T07:51:42.368Z,9.50
2022-11-15T07:52:42.355Z,9.44
2022-11-15T07:53:42.342Z,9.49
2022-11-15T07:54:42.330Z,9.49
2022-11-15T07:55:42.310Z,9.53
2022-11-15T07:56:42.319Z,9.60
2022-11-15T07:57:42.295Z,9.63
2022-11-15T07:58:42.322Z,9.71
2022-11-15T07:59:42.272Z,9.85
2022-11-15T08:00:42.255Z,9.88
2022-11-15T08:01:42.301Z,9.92
2022-11-15T08:02:42.421Z,9.95
2022-11-15T08:03:42.259Z,9.96
2022-11-15T08:04:42.191Z,9.95
2022-11-15T08:05:42.198Z,9.92
2022-11-15T08:06:42.165Z,9.98
2022-11-15T08:07:42.155Z,9.95
2022-11-15T08:08:42.138Z,9.86
2022-11-15T08:09:42.125Z,9.93
2022-11-15T08:10:42.107Z,9.96
2022-11-15T08:11:42.088Z,9.92
2022-11-15T08:12:42.148Z,9.96
2022-11-15T08:13:42.064Z,9.95
2022-11-15T08:14:42.047Z,10.02
2022-11-15T08:15:42.054Z,9.99
2022-11-15T08:16:42.021Z,10.01
2022-11-15T08:17:42.010Z,10.11
2022-11-15T08:18:41.995Z,10.11
2022-11-15T08:19:41.977Z,10.14
2022-11-15T08:20:41.971Z,10.18
2022-11-15T08:21:41.952Z,10.20
2022-11-15T08:22:42.038Z,10.16
2022-11-15T08:23:41.923Z,10.16
2022-11-15T08:24:41.911Z,10.11
2022-11-15T08:25:41.897Z,10.13
2022-11-15T08:26:41.884Z,10.16
2022-11-15T08:27:41.912Z,10.20
2022-11-15T08:28:41.858Z,10.18
2022-11-15T08:29:41.840Z,10.22
2022-11-15T08:30:41.830Z,10.14
2022-11-15T08:31:41.845Z,10.17
2022-11-15T08:32:41.801Z,10.18
2022-11-15T08:33:41.788Z,10.20
2022-11-15T08:34:41.774Z,10.18
2022-11-15T08:35:41.757Z,10.26
2022-11-15T08:36:45.897Z,10.24
2022-11-15T08:37:41.733Z,10.26
2022-11-15T08:38:41.720Z,10.25
2022-11-15T08:39:41.703Z,10.11
2022-11-15T08:40:41.695Z,10.20
2022-11-15T08:41:41.689Z,10.25
2022-11-15T08:42:41.669Z,10.22
2022-11-15T08:43:41.662Z,10.26
2022-11-15T08:44:41.640Z,10.42
2022-11-15T08:45:41.622Z,10.28
2022-11-15T08:46:41.613Z,10.28
2022-11-15T08:47:41.615Z,10.26
2022-11-15T08:48:41.584Z,10.24
2022-11-15T08:49:41.569Z,10.25
2022-11-15T08:50:41.559Z,10.24
2022-11-15T08:51:41.540Z,10.29
2022-11-15T08:52:41.528Z,10.26
2022-11-15T08:53:41.515Z,10.34
2022-11-15T08:54:41.503Z,10.36
2022-11-15T08:55:41.488Z,10.38
2022-11-15T08:56:41.475Z,10.46
2022-11-15T08:57:41.462Z,10.60
2022-11-15T08:58:41.450Z,10.68
2022-11-15T08:59:41.433Z,10.69
2022-11-15T09:00:41.421Z,10.66
2022-11-15T09:01:41.509Z,10.68
2022-11-15T09:02:41.397Z,10.76
2022-11-15T09:03:41.400Z,10.80
2022-11-15T09:04:41.369Z,10.86
2022-11-15T09:05:41.353Z,10.83
2022-11-15T09:06:43.325Z,10.84
2022-11-15T09:07:41.326Z,10.87
2022-11-15T09:08:47.418Z,10.90
2022-11-15T09:09:41.299Z,10.87
2022-11-15T09:10:41.289Z,10.98
2022-11-15T09:11:41.273Z,10.99
2022-11-15T09:12:41.262Z,10.83
2022-11-15T09:13:41.247Z,10.69
2022-11-15T09:14:41.235Z,10.73
2022-11-15T09:15:41.221Z,10.76
2022-11-15T09:16:41.210Z,10.80
2022-11-15T09:17:41.193Z,10.86
2022-11-15T09:18:41.183Z,10.87
2022-11-15T09:19:41.188Z,10.88
2022-11-15T09:20:41.155Z,10.88
2022-11-15T09:21:41.141Z,10.84
2022-11-15T09:22:41.131Z,10.80
2022-11-15T09:23:41.114Z,10.99
2022-11-15T09:24:41.105Z,10.95
2022-11-15T09:25:41.089Z,10.94
2022-11-15T09:26:41.077Z,10.99
2022-11-15T09:27:41.066Z,10.98
2022-11-15T09:28:41.055Z,11.02
2022-11-15T09:29:41.036Z,11.01
2022-11-15T09:30:41.024Z,11.09
2022-11-15T09:31:41.111Z,11.06
2022-11-15T09:32:40.998Z,11.09
2022-11-15T09:33:40.985Z,11.05
2022-11-15T09:34:41.069Z,11.09
2022-11-15T09:35:40.975Z,11.19
2022-11-15T09:36:40.946Z,11.11
2022-11-15T09:37:40.938Z,11.19
2022-11-15T09:38:40.921Z,11.19
2022-11-15T09:39:40.904Z,11.23
2022-11-15T09:40:40.908Z,11.23
2022-11-15T09:41:40.879Z,11.26
2022-11-15T09:42:40.882Z,11.19
2022-11-15T09:43:40.853Z,11.12
2022-11-15T09:44:40.841Z,11.24
2022-11-15T09:45:40.829Z,11.19
2022-11-15T09:46:40.816Z,11.13
2022-11-15T09:47:40.799Z,11.17
2022-11-15T09:48:40.790Z,11.17
2022-11-15T09:49:40.775Z,11.11
2022-11-15T09:50:40.763Z,11.23
2022-11-15T09:51:40.769Z,11.19
2022-11-15T09:52:40.743Z,11.23
2022-11-15T09:54:23.616Z,11.24
2022-11-15T09:54:56.595Z,11.19
2022-11-15T09:55:40.696Z,11.17
2022-11-15T09:56:40.688Z,11.20
2022-11-15T09:57:40.674Z,11.20
2022-11-15T09:58:40.662Z,11.17
2022-11-15T09:59:40.644Z,11.30
2022-11-15T10:00:48.486Z,11.26
2022-11-15T10:01:40.653Z,11.36
2022-11-15T10:02:40.611Z,11.42
2022-11-15T10:03:40.594Z,11.36
2022-11-15T10:04:40.588Z,11.38
2022-11-15T10:05:40.570Z,11.44
2022-11-15T10:06:40.561Z,11.46
2022-11-15T10:07:40.597Z,11.51
2022-11-15T10:08:40.533Z,11.45
2022-11-15T10:09:40.517Z,11.60
2022-11-15T10:10:40.511Z,11.62
2022-11-15T10:11:40.502Z,11.62
2022-11-15T10:12:40.481Z,11.62
2022-11-15T10:13:40.467Z,11.63
2022-11-15T10:14:40.457Z,11.72
2022-11-15T10:15:40.500Z,11.64
2022-11-15T10:16:40.436Z,11.70
2022-11-15T10:17:40.423Z,11.77
2022-11-15T10:18:40.406Z,11.67
2022-11-15T10:19:40.391Z,11.66
2022-11-15T10:20:40.379Z,11.63
2022-11-15T10:21:40.364Z,11.63
2022-11-15T10:22:40.356Z,11.64
2022-11-15T10:23:40.358Z,11.66
2022-11-15T10:24:40.347Z,11.66
2022-11-15T10:25:40.315Z,11.62
2022-11-15T10:26:40.304Z,11.64
2022-11-15T10:27:40.289Z,11.69
2022-11-15T10:28:40.278Z,11.64
2022-11-15T10:29:40.263Z,11.60
2022-11-15T10:30:40.257Z,11.67
2022-11-15T10:31:40.239Z,11.66
2022-11-15T10:32:40.227Z,11.63
2022-11-15T10:33:40.222Z,11.74
2022-11-15T10:34:40.203Z,11.79
2022-11-15T10:35:40.206Z,11.82
2022-11-15T10:36:40.279Z,11.75
2022-11-15T10:37:40.163Z,11.75
2022-11-15T10:38:40.160Z,11.75
2022-11-15T10:39:40.157Z,11.75
2022-11-15T10:40:40.133Z,11.82
2022-11-15T10:41:40.116Z,11.85
2022-11-15T10:42:40.104Z,12.01
2022-11-15T10:43:40.088Z,11.96
2022-11-15T10:44:40.077Z,11.96
2022-11-15T10:45:40.066Z,12.03
2022-11-15T10:46:46.577Z,11.98
2022-11-15T10:47:40.039Z,12.03
2022-11-15T10:48:40.030Z,12.01
2022-11-15T10:49:40.015Z,12.15
2022-11-15T10:50:40.003Z,12.08
2022-11-15T10:51:39.989Z,12.13
2022-11-15T10:52:39.979Z,12.19
2022-11-15T10:53:39.966Z,12.05
2022-11-15T10:54:39.951Z,12.16
2022-11-15T10:55:39.960Z,12.19
2022-11-15T10:56:39.927Z,12.30
2022-11-15T10:57:39.916Z,12.33
2022-11-15T10:58:39.902Z,12.31
2022-11-15T10:59:39.891Z,12.30
2022-11-15T11:00:39.876Z,12.30
2022-11-15T11:01:39.896Z,12.30
2022-11-15T11:02:39.854Z,12.41
2022-11-15T11:03:39.842Z,12.49
2022-11-15T11:04:39.828Z,12.54
2022-11-15T11:05:42.391Z,12.58
2022-11-15T11:06:39.805Z,12.52
2022-11-15T11:07:39.795Z,12.61
2022-11-15T11:08:39.782Z,12.56
2022-11-15T11:09:39.776Z,12.63
2022-11-15T11:11:01.605Z,12.66
2022-11-15T11:11:39.785Z,12.66
2022-11-15T11:12:39.732Z,12.69
2022-11-15T11:13:39.721Z,12.76
2022-11-15T11:14:39.709Z,12.70
2022-11-15T11:15:39.937Z,12.76
2022-11-15T11:16:39.696Z,12.91
2022-11-15T11:17:39.673Z,12.84
2022-11-15T11:18:39.659Z,12.95
2022-11-15T11:19:39.649Z,12.95
2022-11-15T11:20:39.636Z,12.96
2022-11-15T11:21:40.300Z,13.01
2022-11-15T11:22:39.662Z,13.01
2022-11-15T11:23:39.601Z,13.03
2022-11-15T11:24:39.589Z,13.04
2022-11-15T11:25:39.577Z,13.10
2022-11-15T11:26:39.566Z,13.06
2022-11-15T11:27:39.571Z,12.96
2022-11-15T11:28:39.540Z,12.95
2022-11-15T11:29:39.531Z,12.91
2022-11-15T11:30:39.517Z,12.92
2022-11-15T11:31:39.509Z,12.92
2022-11-15T11:32:39.494Z,12.95
2022-11-15T11:33:39.484Z,12.92
2022-11-15T11:34:39.470Z,12.96
2022-11-15T11:35:39.461Z,12.80
2022-11-15T11:36:39.447Z,12.94
2022-11-15T11:37:39.436Z,12.92
2022-11-15T11:38:39.426Z,12.92
2022-11-15T11:39:39.413Z,12.91
2022-11-15T11:40:39.402Z,13.01
2022-11-15T11:41:39.390Z,12.92
2022-11-15T11:42:39.379Z,12.92
2022-11-15T11:43:39.408Z,13.06
2022-11-15T11:44:39.352Z,13.06
2022-11-15T11:45:42.260Z,13.07
2022-11-15T11:46:39.329Z,13.09
2022-11-15T11:47:39.317Z,13.14
2022-11-15T11:48:39.305Z,13.07
2022-11-15T11:49:39.295Z,13.10
2022-11-15T11:50:39.284Z,13.10
2022-11-15T11:51:39.272Z,13.03
2022-11-15T11:52:39.271Z,12.92
2022-11-15T11:53:39.248Z,13.03
2022-11-15T11:54:39.233Z,12.96
2022-11-15T11:55:39.223Z,12.94
2022-11-15T11:56:39.211Z,13.06
2022-11-15T11:57:39.201Z,13.03
2022-11-15T11:58:39.188Z,13.13
2022-11-15T11:59:39.199Z,13.12
2022-11-15T12:00:39.164Z,13.13
2022-11-15T12:01:39.239Z,13.17
2022-11-15T12:02:39.277Z,13.21
2022-11-15T12:03:39.130Z,13.21
2022-11-15T12:04:39.120Z,13.22
2022-11-15T12:05:39.107Z,13.21
2022-11-15T12:06:39.095Z,13.21
2022-11-15T12:07:39.083Z,13.27
2022-11-15T12:08:39.069Z,13.29
2022-11-15T12:09:39.066Z,13.28
2022-11-15T12:10:39.049Z,13.35
2022-11-15T12:11:39.036Z,13.36
2022-11-15T12:12:39.023Z,13.38
2022-11-15T12:13:39.014Z,13.39
2022-11-15T12:14:39.000Z,13.46
2022-11-15T12:15:39.007Z,13.32
2022-11-15T12:16:38.979Z,13.41
2022-11-15T12:17:38.967Z,13.32
2022-11-15T12:18:38.955Z,13.38
2022-11-15T12:19:38.946Z,13.24
2022-11-15T12:20:38.930Z,13.32
2022-11-15T12:21:38.922Z,13.28
2022-11-15T12:22:38.908Z,13.24
2022-11-15T12:23:38.898Z,13.24
2022-11-15T12:24:38.884Z,13.21
2022-11-15T12:25:38.874Z,13.14
2022-11-15T12:26:38.862Z,13.17
2022-11-15T12:27:38.853Z,13.10
2022-11-15T12:28:48.583Z,13.14
2022-11-15T12:29:38.828Z,13.16
2022-11-15T12:30:38.816Z,13.14
2022-11-15T12:31:38.824Z,13.17
2022-11-15T12:32:38.790Z,13.16
2022-11-15T12:33:38.781Z,13.14
2022-11-15T12:34:38.781Z,13.14
2022-11-15T12:35:38.759Z,13.19
2022-11-15T12:36:38.745Z,13.25
2022-11-15T12:37:38.813Z,13.28
2022-11-15T12:38:38.722Z,13.29
2022-11-15T12:39:38.712Z,13.29
2022-11-15T12:40:38.698Z,13.36
2022-11-15T12:41:38.689Z,13.35
2022-11-15T12:42:38.676Z,13.29
2022-11-15T12:43:38.666Z,13.29
2022-11-15T12:44:38.657Z,13.28
2022-11-15T12:45:38.644Z,13.39
2022-11-15T12:46:38.634Z,13.41
2022-11-15T12:47:38.652Z,13.48
2022-11-15T12:48:38.606Z,13.43
2022-11-15T12:49:38.597Z,13.54
2022-11-15T12:50:38.585Z,13.48
2022-11-15T12:51:38.576Z,13.51
2022-11-15T12:52:38.560Z,13.57
2022-11-15T12:53:38.559Z,13.54
2022-11-15T12:54:38.537Z,13.55
2022-11-15T12:55:38.527Z,13.66
2022-11-15T12:56:38.517Z,13.61
2022-11-15T12:57:38.509Z,13.61
2022-11-15T12:58:38.492Z,13.59
2022-11-15T12:59:38.482Z,13.61
2022-11-15T13:00:38.468Z,13.59
2022-11-15T13:01:38.566Z,13.68
2022-11-15T13:02:38.448Z,13.65
2022-11-15T13:03:38.454Z,13.65
2022-11-15T13:04:38.424Z,13.63
2022-11-15T13:05:38.416Z,13.69
2022-11-15T13:06:38.401Z,13.68
2022-11-15T13:07:38.507Z,13.71
2022-11-15T13:08:38.379Z,13.66